Terminal Aerodrome Forecast
Issued by NWS

Current Version | Previous Version | Graphics & Text | Print | Product List | Glossary On
Versions: 1 2 3 4 5 6 7 8 9 10 11 12 13 14 15 16 17 18 19 20 21
445
FTUS41 KILN 212339
TAFLUK
TAF
KLUK 212339Z 2200/2224 29005KT P6SM VCTS SCT050 OVC250CB
     FM220200 00000KT P6SM OVC250
     FM220700 00000KT 4SM BR SCT250
      TEMPO 2208/2212 1SM BR
     FM221200 23004KT P6SM VCTS SCT040 BKN120CB
     FM221800 25008KT P6SM SCT040 BKN200=

USA.gov is the U.S. government's official web portal to all federal, state and local government web resources and services.